Time;durP1;ratioP1;P1;durP2;ratioP2;P2;SDS_P1;SDS_P2;PMS_P1;PMS_P2;Temp;Humidity;BMP_temperature;BMP_pressure;BME280_temperature;BME280_humidity;BME280_pressure;Samples;Min_cycle;Max_cycle;Signal;HPM_P1;HPM_P2
2022/10/24 00:02:14;;;;;;;;;;;;;;;3.99;100.00;98032.42;107657;1266;59737;-65
2022/10/24 00:04:45;;;;;;;;;;;;;;;3.86;100.00;98039.32;107666;1265;72012;-66
2022/10/24 00:07:14;;;;;;;;;;;;;;;3.71;100.00;98037.42;107667;1264;68696;-66
2022/10/24 00:09:44;;;;;;;;;;;;;;;3.59;100.00;98032.00;107626;1265;68282;-66
2022/10/24 00:12:14;;;;;;;;;;;;;;;3.51;100.00;98027.95;107652;1268;59710;-66
2022/10/24 00:14:46;;;;;;;;;;;;;;;3.45;100.00;98027.45;107667;1264;59834;-66
2022/10/24 00:17:16;;;;;;;;;;;;;;;3.42;100.00;98026.19;107660;1269;71388;-66
2022/10/24 00:19:46;;;;;;;;;;;;;;;3.42;100.00;98022.06;107648;1269;69241;-66
2022/10/24 00:22:15;;;;;;;;;;;;;;;3.43;100.00;98017.53;107640;1264;68331;-66
2022/10/24 00:24:46;;;;;;;;;;;;;;;3.46;100.00;98011.21;107631;1266;59717;-66
2022/10/24 00:27:16;;;;;;;;;;;;;;;3.49;100.00;98013.20;107666;1264;59775;-66
2022/10/24 00:29:46;;;;;;;;;;;;;;;3.50;100.00;98013.50;107717;1268;71340;-65
2022/10/24 00:32:16;;;;;;;;;;;;;;;3.48;100.00;98004.98;107718;1268;69194;-66
2022/10/24 00:34:45;;;;;;;;;;;;;;;3.46;100.00;98001.26;107676;1267;69186;-66
2022/10/24 00:37:15;;;;;;;;;;;;;;;3.44;100.00;98003.20;107628;1270;60092;-66
2022/10/24 00:39:44;;;;;;;;;;;;;;;3.44;100.00;98006.67;107668;1266;59819;-66
2022/10/24 00:42:14;;;;;;;;;;;;;;;3.44;100.00;98007.84;107707;1266;71396;-66
2022/10/24 00:44:45;;;;;;;;;;;;;;;3.45;100.00;98007.63;107625;1267;69051;-66
2022/10/24 00:47:18;;;;;;;;;;;;;;;3.50;100.00;98006.77;107678;1264;69379;-66
2022/10/24 00:50:00;;;;;;;;;;;;;;;3.55;100.00;97999.69;107649;1264;59722;-66
2022/10/24 00:52:34;;;;;;;;;;;;;;;3.61;100.00;98004.01;107669;1268;59765;-66
2022/10/24 00:55:04;;;;;;;;;;;;;;;3.61;100.00;98000.91;107636;1268;71403;-66
2022/10/24 00:57:44;;;;;;;;;;;;;;;3.60;100.00;98000.77;107645;1265;68388;-66
2022/10/24 01:00:16;;;;;;;;;;;;;;;3.58;100.00;97998.91;107665;1259;69369;-66
2022/10/24 01:02:47;;;;;;;;;;;;;;;3.57;100.00;97994.30;107694;1268;59774;-66
2022/10/24 01:05:17;;;;;;;;;;;;;;;3.55;100.00;97996.42;107609;1268;59668;-66
2022/10/24 01:08:08;;;;;;;;;;;;;;;3.53;100.00;97990.83;107687;1268;71436;-66
2022/10/24 01:10:37;;;;;;;;;;;;;;;3.53;100.00;97989.29;107673;1268;69157;-66
2022/10/24 01:13:16;;;;;;;;;;;;;;;3.53;100.00;97981.34;107606;1264;68586;-66
2022/10/24 01:16:10;;;;;;;;;;;;;;;3.51;100.00;97970.73;107671;1268;59709;-66
2022/10/24 01:18:47;;;;;;;;;;;;;;;3.48;100.00;97963.27;107693;1264;59717;-66
2022/10/24 01:21:35;;;;;;;;;;;;;;;3.48;100.00;97960.51;107661;1268;70560;-66
2022/10/24 01:24:17;;;;;;;;;;;;;;;3.48;100.00;97960.86;107655;1264;68792;-66
2022/10/24 01:26:56;;;;;;;;;;;;;;;3.49;100.00;97958.20;107652;1264;68354;-66
2022/10/24 01:29:35;;;;;;;;;;;;;;;3.51;100.00;97955.21;107607;1261;59695;-66
2022/10/24 01:32:15;;;;;;;;;;;;;;;3.52;100.00;97954.15;107640;1270;59729;-66
2022/10/24 01:34:51;;;;;;;;;;;;;;;3.53;100.00;97955.84;107681;1268;70426;-66
2022/10/24 01:37:39;;;;;;;;;;;;;;;3.54;100.00;97959.95;107637;1267;68563;-66
2022/10/24 01:40:19;;;;;;;;;;;;;;;3.54;100.00;97965.97;107655;1264;69260;-66
2022/10/24 01:42:50;;;;;;;;;;;;;;;3.48;100.00;97966.34;107644;1266;59665;-65
2022/10/24 01:45:25;;;;;;;;;;;;;;;3.40;100.00;97969.56;107695;1268;59814;-66
2022/10/24 01:47:57;;;;;;;;;;;;;;;3.31;100.00;97969.21;107677;1268;71411;-66
2022/10/24 01:50:28;;;;;;;;;;;;;;;3.18;100.00;97968.79;107630;1264;69057;-66
2022/10/24 01:52:59;;;;;;;;;;;;;;;3.07;100.00;97968.45;107634;1268;67737;-66
2022/10/24 01:55:31;;;;;;;;;;;;;;;2.99;100.00;97973.38;107670;1268;59739;-66
2022/10/24 01:58:01;;;;;;;;;;;;;;;2.91;100.00;97972.98;107631;1270;59725;-66
2022/10/24 02:00:31;;;;;;;;;;;;;;;2.88;100.00;97975.98;107682;1267;71662;-66
2022/10/24 02:03:04;;;;;;;;;;;;;;;2.90;100.00;97973.52;107616;1264;68405;-66
2022/10/24 02:05:37;;;;;;;;;;;;;;;2.88;100.00;97971.69;107650;1266;70295;-66
2022/10/24 02:08:09;;;;;;;;;;;;;;;2.87;100.00;97975.37;107676;1270;59792;-66
2022/10/24 02:10:44;;;;;;;;;;;;;;;2.87;100.00;97980.52;107687;1269;59694;-66
2022/10/24 02:13:18;;;;;;;;;;;;;;;2.94;100.00;97985.12;107626;1269;72166;-66
2022/10/24 02:15:51;;;;;;;;;;;;;;;2.99;100.00;97981.32;107605;1269;68618;-66
2022/10/24 02:18:21;;;;;;;;;;;;;;;3.03;100.00;97981.16;107595;1264;69224;-66
2022/10/24 02:20:54;;;;;;;;;;;;;;;3.09;100.00;97979.27;107673;1270;59773;-66
2022/10/24 02:23:32;;;;;;;;;;;;;;;3.17;100.00;97973.64;107732;1264;59770;-66
2022/10/24 02:26:08;;;;;;;;;;;;;;;3.30;100.00;97969.73;107656;1270;71512;-66
2022/10/24 02:28:41;;;;;;;;;;;;;;;3.43;100.00;97960.00;107612;1270;68674;-68
2022/10/24 02:31:15;;;;;;;;;;;;;;;3.48;100.00;97956.38;107585;1268;69682;-67
2022/10/24 02:33:47;;;;;;;;;;;;;;;3.51;100.00;97955.58;107650;1270;59702;-67
2022/10/24 02:36:18;;;;;;;;;;;;;;;3.56;100.00;97962.46;107641;1267;59731;-67
2022/10/24 02:38:48;;;;;;;;;;;;;;;3.57;100.00;97960.51;107624;1268;70805;-67
2022/10/24 02:41:21;;;;;;;;;;;;;;;3.59;100.00;97958.73;107716;1266;69190;-66
2022/10/24 02:43:52;;;;;;;;;;;;;;;3.62;100.00;97953.10;107620;1265;69286;-67
2022/10/24 02:46:23;;;;;;;;;;;;;;;3.67;100.00;97957.79;107663;1267;59749;-67
2022/10/24 02:48:55;;;;;;;;;;;;;;;3.71;100.00;97960.18;107662;1265;59708;-67
2022/10/24 02:51:37;;;;;;;;;;;;;;;3.76;100.00;97972.77;107677;1265;70607;-67
2022/10/24 02:54:07;;;;;;;;;;;;;;;3.73;100.00;97978.03;107737;1264;69053;-67
2022/10/24 02:56:43;;;;;;;;;;;;;;;3.74;100.00;97966.11;107626;1267;69252;-67
2022/10/24 02:59:12;;;;;;;;;;;;;;;3.76;100.00;97962.27;107659;1268;59703;-66
2022/10/24 03:01:42;;;;;;;;;;;;;;;3.78;100.00;97962.49;107665;1268;60105;-67
2022/10/24 03:04:13;;;;;;;;;;;;;;;3.80;100.00;97956.09;107704;1268;71261;-67
2022/10/24 03:06:43;;;;;;;;;;;;;;;3.80;100.00;97958.81;107702;1270;69319;-67
2022/10/24 03:09:13;;;;;;;;;;;;;;;3.81;100.00;97961.38;107639;1271;69222;-67
2022/10/24 03:11:43;;;;;;;;;;;;;;;3.79;100.00;97959.55;107677;1267;59746;-67
2022/10/24 03:14:12;;;;;;;;;;;;;;;3.76;100.00;97956.71;107623;1267;59711;-67
2022/10/24 03:16:42;;;;;;;;;;;;;;;3.72;100.00;97954.46;107689;1265;71475;-67
2022/10/24 03:19:13;;;;;;;;;;;;;;;3.69;100.00;97954.39;107679;1268;69877;-67
2022/10/24 03:21:42;;;;;;;;;;;;;;;3.67;100.00;97955.85;107697;1268;68567;-67
2022/10/24 03:24:12;;;;;;;;;;;;;;;3.67;100.00;97959.65;107676;1268;59717;-67
2022/10/24 03:26:55;;;;;;;;;;;;;;;3.66;100.00;97955.91;107725;1265;59728;-67
2022/10/24 03:29:25;;;;;;;;;;;;;;;3.65;100.00;97958.34;107732;1265;70675;-67
2022/10/24 03:31:54;;;;;;;;;;;;;;;3.65;100.00;97950.59;107673;1269;68455;-67
2022/10/24 03:34:23;;;;;;;;;;;;;;;3.64;100.00;97944.24;107684;1268;70072;-67
2022/10/24 03:36:53;;;;;;;;;;;;;;;3.65;100.00;97948.35;107647;1265;59778;-66
2022/10/24 03:39:22;;;;;;;;;;;;;;;3.66;100.00;97946.59;107683;1264;59728;-67
2022/10/24 03:41:51;;;;;;;;;;;;;;;3.68;100.00;97945.15;107741;1260;70798;-67
2022/10/24 03:44:20;;;;;;;;;;;;;;;3.69;100.00;97946.30;107642;1268;69095;-67
2022/10/24 03:46:49;;;;;;;;;;;;;;;3.68;100.00;97944.98;107630;1268;69287;-67
2022/10/24 03:49:18;;;;;;;;;;;;;;;3.63;100.00;97945.50;107664;1268;59771;-67
2022/10/24 03:51:47;;;;;;;;;;;;;;;3.59;100.00;97941.16;107657;1268;59700;-67
2022/10/24 03:54:17;;;;;;;;;;;;;;;3.58;100.00;97939.80;107651;1268;72074;-67
2022/10/24 03:56:48;;;;;;;;;;;;;;;3.56;100.00;97935.23;107644;1268;68414;-67
2022/10/24 03:59:18;;;;;;;;;;;;;;;3.55;100.00;97934.05;107691;1268;69308;-67
2022/10/24 04:01:47;;;;;;;;;;;;;;;3.53;100.00;97927.04;107646;1264;59771;-67
2022/10/24 04:04:17;;;;;;;;;;;;;;;3.52;100.00;97927.11;107653;1269;59764;-67
2022/10/24 04:06:46;;;;;;;;;;;;;;;3.51;100.00;97926.11;107659;1269;71868;-67
2022/10/24 04:09:16;;;;;;;;;;;;;;;3.49;100.00;97928.91;107739;1268;68654;-67
2022/10/24 04:11:46;;;;;;;;;;;;;;;3.48;100.00;97932.93;107660;1267;68496;-67
2022/10/24 04:14:16;;;;;;;;;;;;;;;3.45;100.00;97930.60;107625;1266;59781;-67
2022/10/24 04:16:44;;;;;;;;;;;;;;;3.44;100.00;97928.77;107653;1265;59620;-67
2022/10/24 04:19:16;;;;;;;;;;;;;;;3.42;100.00;97935.73;107660;1268;72006;-67
2022/10/24 04:21:46;;;;;;;;;;;;;;;3.40;100.00;97935.63;107698;1265;69074;-67
2022/10/24 04:24:16;;;;;;;;;;;;;;;3.37;100.00;97934.55;107677;1264;68538;-67
2022/10/24 04:26:44;;;;;;;;;;;;;;;3.33;100.00;97933.80;107630;1265;59795;-67
2022/10/24 04:29:14;;;;;;;;;;;;;;;3.29;100.00;97933.59;107691;1268;59713;-67
2022/10/24 04:31:43;;;;;;;;;;;;;;;3.26;100.00;97930.27;107663;1268;71412;-67
2022/10/24 04:34:12;;;;;;;;;;;;;;;3.21;100.00;97925.11;107666;1268;68657;-67
2022/10/24 04:36:40;;;;;;;;;;;;;;;3.17;100.00;97924.89;107612;1268;69445;-67
2022/10/24 04:39:09;;;;;;;;;;;;;;;3.14;100.00;97927.92;107668;1269;59695;-67
2022/10/24 04:41:38;;;;;;;;;;;;;;;3.12;100.00;97929.05;107686;1270;59727;-67
2022/10/24 04:44:07;;;;;;;;;;;;;;;3.11;100.00;97931.34;107671;1265;71763;-67
2022/10/24 04:46:35;;;;;;;;;;;;;;;3.11;100.00;97937.69;107675;1268;68693;-67
2022/10/24 04:49:04;;;;;;;;;;;;;;;3.10;100.00;97938.75;107642;1263;70048;-67
2022/10/24 04:51:33;;;;;;;;;;;;;;;3.10;100.00;97942.38;107677;1268;59747;-67
2022/10/24 04:54:02;;;;;;;;;;;;;;;3.10;100.00;97950.30;107662;1268;59717;-67
2022/10/24 04:56:31;;;;;;;;;;;;;;;3.12;100.00;97953.50;107658;1264;71383;-67
2022/10/24 04:59:00;;;;;;;;;;;;;;;3.15;100.00;97953.91;107649;1265;69496;-67
2022/10/24 05:01:29;;;;;;;;;;;;;;;3.18;100.00;97953.81;107631;1264;69267;-67
2022/10/24 05:03:57;;;;;;;;;;;;;;;3.22;100.00;97959.69;107631;1267;59759;-68
2022/10/24 05:06:26;;;;;;;;;;;;;;;3.27;100.00;97958.30;107624;1264;59692;-67
2022/10/24 05:08:55;;;;;;;;;;;;;;;3.36;100.00;97960.95;107667;1268;71588;-67
2022/10/24 05:11:24;;;;;;;;;;;;;;;3.46;100.00;97953.33;107610;1268;69432;-67
2022/10/24 05:13:52;;;;;;;;;;;;;;;3.54;100.00;97956.83;107600;1266;69558;-67
2022/10/24 05:16:21;;;;;;;;;;;;;;;3.68;100.00;97957.40;107616;1265;59742;-67
2022/10/24 05:18:49;;;;;;;;;;;;;;;3.75;100.00;97966.78;107679;1268;59767;-67
2022/10/24 05:21:18;;;;;;;;;;;;;;;3.81;100.00;97968.44;107651;1268;72181;-67
2022/10/24 05:23:46;;;;;;;;;;;;;;;3.87;100.00;97971.48;107640;1268;69286;-67
2022/10/24 05:26:14;;;;;;;;;;;;;;;3.95;100.00;97970.69;107639;1269;68944;-67
2022/10/24 05:28:43;;;;;;;;;;;;;;;3.98;100.00;97969.38;107676;1269;59775;-67
2022/10/24 05:31:17;;;;;;;;;;;;;;;3.98;100.00;97971.95;107602;1270;59718;-67
2022/10/24 05:33:45;;;;;;;;;;;;;;;4.00;100.00;97973.08;107622;1270;70567;-67
2022/10/24 05:36:14;;;;;;;;;;;;;;;4.03;100.00;97977.44;107627;1265;69564;-65
2022/10/24 05:38:42;;;;;;;;;;;;;;;4.09;100.00;97971.35;107635;1270;69389;-67
2022/10/24 05:41:10;;;;;;;;;;;;;;;4.18;100.00;97970.32;107697;1265;59757;-67
2022/10/24 05:43:39;;;;;;;;;;;;;;;4.28;100.00;97965.12;107634;1268;59762;-67
2022/10/24 05:46:08;;;;;;;;;;;;;;;4.40;100.00;97961.04;107620;1267;71158;-67
2022/10/24 05:48:37;;;;;;;;;;;;;;;4.50;100.00;97962.70;107695;1268;70291;-67
2022/10/24 05:51:06;;;;;;;;;;;;;;;4.64;100.00;97962.85;107594;1267;69657;-67
2022/10/24 05:53:34;;;;;;;;;;;;;;;4.79;100.00;97963.27;107614;1265;59695;-67
2022/10/24 05:56:04;;;;;;;;;;;;;;;4.95;100.00;97965.02;107646;1269;59626;-67
2022/10/24 05:58:33;;;;;;;;;;;;;;;5.13;100.00;97969.81;107644;1265;71731;-67
2022/10/24 06:01:01;;;;;;;;;;;;;;;5.33;100.00;97971.54;107649;1265;67846;-67
2022/10/24 06:03:30;;;;;;;;;;;;;;;5.54;100.00;97974.09;107613;1268;69633;-67
2022/10/24 06:06:02;;;;;;;;;;;;;;;5.77;100.00;97969.10;107611;1264;59741;-71
2022/10/24 06:08:30;;;;;;;;;;;;;;;6.01;100.00;97974.46;107758;1268;59690;-67
2022/10/24 06:10:58;;;;;;;;;;;;;;;6.27;100.00;97975.88;107671;1259;70799;-67
2022/10/24 06:13:27;;;;;;;;;;;;;;;6.53;100.00;97978.63;107626;1261;68049;-67
2022/10/24 06:16:04;;;;;;;;;;;;;;;6.88;100.00;97974.31;107602;1268;70104;-67
2022/10/24 06:18:32;;;;;;;;;;;;;;;7.19;99.44;97971.56;107679;1267;59738;-67
2022/10/24 06:21:03;;;;;;;;;;;;;;;7.55;98.23;97974.40;107684;1269;59716;-68
2022/10/24 06:23:31;;;;;;;;;;;;;;;7.91;97.12;97978.27;107671;1264;71994;-69
2022/10/24 06:26:00;;;;;;;;;;;;;;;8.23;95.02;97976.23;107622;1264;69251;-69
2022/10/24 06:28:29;;;;;;;;;;;;;;;8.46;93.27;97978.09;107637;1264;68491;-74
2022/10/24 06:30:57;;;;;;;;;;;;;;;8.69;93.41;97985.69;107621;1268;59757;-74
2022/10/24 06:33:25;;;;;;;;;;;;;;;8.77;92.29;97987.15;107666;1268;59658;-74
2022/10/24 06:35:54;;;;;;;;;;;;;;;8.96;94.59;97986.10;107619;1264;72124;-74
2022/10/24 06:38:23;;;;;;;;;;;;;;;9.11;93.42;97986.41;107623;1264;69801;-74
2022/10/24 06:40:51;;;;;;;;;;;;;;;9.14;89.57;97983.98;107607;1268;69409;-76
2022/10/24 06:43:19;;;;;;;;;;;;;;;9.12;89.20;97985.66;107586;1268;59747;-75
2022/10/24 06:45:48;;;;;;;;;;;;;;;9.14;88.91;97988.70;107617;1268;59779;-76
2022/10/24 06:48:16;;;;;;;;;;;;;;;9.22;89.94;97989.64;107669;1261;70584;-74
2022/10/24 06:50:45;;;;;;;;;;;;;;;9.17;88.96;97987.13;107598;1268;69302;-76
2022/10/24 06:53:13;;;;;;;;;;;;;;;9.25;88.47;97993.28;107606;1268;70237;-76
2022/10/24 06:55:42;;;;;;;;;;;;;;;9.32;87.39;97994.59;107629;1268;59766;-76
2022/10/24 06:58:10;;;;;;;;;;;;;;;9.37;87.52;97999.53;107635;1268;59703;-76
2022/10/24 07:00:38;;;;;;;;;;;;;;;9.58;88.77;97987.50;107659;1265;72029;-77
2022/10/24 07:03:11;;;;;;;;;;;;;;;9.81;89.10;97984.05;107612;1269;69476;-76
2022/10/24 07:05:39;;;;;;;;;;;;;;;10.02;88.67;97986.77;107673;1265;70243;-76
2022/10/24 07:08:08;;;;;;;;;;;;;;;10.24;87.51;97993.58;107636;1265;59730;-76
2022/10/24 07:10:36;;;;;;;;;;;;;;;10.42;83.83;97996.85;107647;1268;59681;-72
2022/10/24 07:13:07;;;;;;;;;;;;;;;10.60;82.04;98003.39;107631;1264;71688;-73
2022/10/24 07:15:36;;;;;;;;;;;;;;;10.70;81.11;98000.64;107646;1264;68760;-73
2022/10/24 07:18:05;;;;;;;;;;;;;;;10.88;80.65;98005.78;107635;1264;68099;-73
2022/10/24 07:20:33;;;;;;;;;;;;;;;11.23;79.75;98002.45;107646;1264;59752;-74
2022/10/24 07:23:02;;;;;;;;;;;;;;;11.37;78.66;97997.67;107591;1264;59667;-74
2022/10/24 07:25:30;;;;;;;;;;;;;;;11.75;78.49;97996.69;107609;1264;71669;-73
2022/10/24 07:27:58;;;;;;;;;;;;;;;12.29;79.93;98000.10;107369;1268;355318;-71
2022/10/24 07:30:27;;;;;;;;;;;;;;;12.76;76.62;97995.66;107605;1269;68939;-69
2022/10/24 07:32:55;;;;;;;;;;;;;;;13.23;75.39;97991.94;107606;1265;59726;-70
2022/10/24 07:35:24;;;;;;;;;;;;;;;13.76;73.53;97988.83;107634;1262;59701;-69
2022/10/24 07:37:52;;;;;;;;;;;;;;;14.28;71.74;97980.36;107698;1264;72071;-72
2022/10/24 07:40:21;;;;;;;;;;;;;;;14.24;65.42;97983.17;107661;1268;69235;-72
2022/10/24 07:42:49;;;;;;;;;;;;;;;14.50;65.44;97981.98;107613;1271;70240;-72
2022/10/24 07:45:17;;;;;;;;;;;;;;;14.78;65.09;97982.59;107610;1271;59751;-72
2022/10/24 07:47:47;;;;;;;;;;;;;;;15.09;63.66;97982.37;107649;1270;59702;-72
2022/10/24 07:50:16;;;;;;;;;;;;;;;15.58;65.74;97972.82;107679;1269;70611;-72
2022/10/24 07:52:44;;;;;;;;;;;;;;;15.92;62.44;97970.64;107642;1271;69865;-72
2022/10/24 07:55:12;;;;;;;;;;;;;;;16.40;61.12;97968.80;107600;1267;68798;-72
2022/10/24 07:57:41;;;;;;;;;;;;;;;16.98;61.04;97979.27;107619;1269;59793;-72
2022/10/24 08:00:10;;;;;;;;;;;;;;;17.26;57.36;97983.65;107676;1265;59691;-72
2022/10/24 08:02:41;;;;;;;;;;;;;;;17.22;57.39;97986.16;107676;1268;72066;-73
2022/10/24 08:05:10;;;;;;;;;;;;;;;17.74;56.82;97992.93;107667;1268;69201;-71
2022/10/24 08:07:39;;;;;;;;;;;;;;;17.54;56.29;97987.91;107627;1268;69287;-70
2022/10/24 08:10:10;;;;;;;;;;;;;;;17.42;56.65;97986.20;107630;1264;59762;-72
2022/10/24 08:12:38;;;;;;;;;;;;;;;17.55;55.95;97988.34;107664;1263;59810;-73
2022/10/24 08:15:07;;;;;;;;;;;;;;;17.50;56.06;97987.77;107670;1268;71427;-72
2022/10/24 08:17:36;;;;;;;;;;;;;;;17.65;55.20;97980.36;107637;1268;69925;-73
2022/10/24 08:20:05;;;;;;;;;;;;;;;18.17;54.99;97970.23;107610;1267;70029;-72
2022/10/24 08:22:34;;;;;;;;;;;;;;;18.87;53.49;97964.23;107644;1267;59718;-73
2022/10/24 08:25:04;;;;;;;;;;;;;;;19.70;53.87;97962.84;107648;1271;59665;-73
2022/10/24 08:27:33;;;;;;;;;;;;;;;19.79;50.93;97956.11;107714;1268;71297;-73
2022/10/24 08:30:02;;;;;;;;;;;;;;;20.39;49.20;97947.77;107689;1268;68439;-73
2022/10/24 08:32:31;;;;;;;;;;;;;;;20.99;50.61;97955.29;107746;1269;69236;-73
2022/10/24 08:34:59;;;;;;;;;;;;;;;19.96;48.88;97959.14;107667;1268;60151;-73
2022/10/24 08:37:28;;;;;;;;;;;;;;;20.04;49.67;97957.73;107628;1264;59722;-73
2022/10/24 08:39:56;;;;;;;;;;;;;;;19.30;50.33;97959.27;107639;1259;72056;-72
2022/10/24 08:42:25;;;;;;;;;;;;;;;19.26;50.41;97960.77;107611;1269;69505;-73
2022/10/24 08:44:53;;;;;;;;;;;;;;;19.27;51.09;97963.11;107690;1269;68473;-72
2022/10/24 08:47:31;;;;;;;;;;;;;;;19.04;51.81;97962.13;107678;1265;60085;-73
2022/10/24 08:49:59;;;;;;;;;;;;;;;18.81;52.00;97970.09;107679;1271;59682;-73
2022/10/24 08:52:36;;;;;;;;;;;;;;;19.29;51.93;97971.03;107663;1269;72122;-73
2022/10/24 08:55:12;;;;;;;;;;;;;;;19.64;50.64;97971.90;107632;1269;69389;-73
2022/10/24 08:57:58;;;;;;;;;;;;;;;19.56;50.78;97968.88;107595;1269;70051;-73
2022/10/24 09:00:35;;;;;;;;;;;;;;;20.01;50.32;97956.55;107624;1271;59729;-73
2022/10/24 09:03:09;;;;;;;;;;;;;;;19.90;49.87;97957.65;107704;1267;59768;-73
2022/10/24 09:05:44;;;;;;;;;;;;;;;20.27;49.80;97953.98;107655;1268;72059;-73
2022/10/24 09:08:26;;;;;;;;;;;;;;;20.46;49.66;97942.63;107711;1268;69150;-74
2022/10/24 09:10:55;;;;;;;;;;;;;;;20.21;48.96;97940.65;107603;1270;69290;-73
2022/10/24 09:13:25;;;;;;;;;;;;;;;20.23;48.86;97935.63;107609;1268;59707;-74
2022/10/24 09:15:54;;;;;;;;;;;;;;;19.75;49.58;97937.19;107634;1268;59724;-74
2022/10/24 09:18:22;;;;;;;;;;;;;;;19.53;50.23;97935.60;107644;1270;72172;-73
2022/10/24 09:20:52;;;;;;;;;;;;;;;19.44;51.25;97937.01;107658;1265;69229;-73
2022/10/24 09:23:22;;;;;;;;;;;;;;;19.37;51.03;97934.09;107662;1268;69685;-72
2022/10/24 09:25:51;;;;;;;;;;;;;;;19.43;51.02;97929.13;107647;1269;59740;-74
2022/10/24 09:28:20;;;;;;;;;;;;;;;19.47;50.95;97922.41;107680;1270;59754;-73
2022/10/24 09:30:49;;;;;;;;;;;;;;;19.79;50.63;97917.15;107665;1271;71389;-74
2022/10/24 09:33:29;;;;;;;;;;;;;;;20.49;49.98;97919.29;107714;1268;68596;-74
2022/10/24 09:35:59;;;;;;;;;;;;;;;20.37;48.81;97918.93;107655;1268;68529;-75
2022/10/24 09:38:32;;;;;;;;;;;;;;;20.36;48.50;97919.79;107687;1265;59741;-75
2022/10/24 09:41:04;;;;;;;;;;;;;;;20.50;48.16;97920.02;107667;1268;59742;-74
2022/10/24 09:43:32;;;;;;;;;;;;;;;20.44;48.56;97915.00;107669;1268;70600;-74
2022/10/24 09:46:08;;;;;;;;;;;;;;;20.74;47.79;97909.94;107705;1269;69164;-74
2022/10/24 09:48:43;;;;;;;;;;;;;;;21.23;47.19;97902.88;107658;1270;69346;-74
2022/10/24 09:51:24;;;;;;;;;;;;;;;21.26;46.86;97900.56;107623;1268;59707;-74
2022/10/24 09:54:00;;;;;;;;;;;;;;;20.56;47.53;97895.77;107666;1269;59632;-74
2022/10/24 09:56:37;;;;;;;;;;;;;;;20.31;48.33;97893.98;107781;1269;71660;-74
2022/10/24 09:59:27;;;;;;;;;;;;;;;20.80;47.65;97892.95;107654;1270;69207;-73
2022/10/24 10:02:17;;;;;;;;;;;;;;;20.79;46.48;97896.08;107730;1269;69194;-73
2022/10/24 10:04:47;;;;;;;;;;;;;;;20.84;46.28;97894.23;107657;1269;59707;-72
2022/10/24 10:07:24;;;;;;;;;;;;;;;21.02;45.31;97893.17;107682;1270;59725;-74
2022/10/24 10:09:56;;;;;;;;;;;;;;;21.16;44.92;97899.16;107653;1270;71680;-74
2022/10/24 10:12:31;;;;;;;;;;;;;;;21.26;45.04;97896.90;107699;1270;69146;-74
2022/10/24 10:15:00;;;;;;;;;;;;;;;21.37;44.27;97896.73;107648;1270;69204;-74
2022/10/24 10:17:32;;;;;;;;;;;;;;;21.74;44.25;97892.56;107806;1266;59721;-73
2022/10/24 10:20:00;;;;;;;;;;;;;;;22.08;43.64;97889.27;107686;1268;59748;-74
2022/10/24 10:22:31;;;;;;;;;;;;;;;22.66;43.39;97894.20;107641;1268;72085;-74
2022/10/24 10:24:59;;;;;;;;;;;;;;;23.13;40.95;97889.66;107774;1268;68699;-74
2022/10/24 10:27:31;;;;;;;;;;;;;;;23.07;40.18;97889.63;107636;1269;70402;-73
2022/10/24 10:30:07;;;;;;;;;;;;;;;23.43;40.09;97890.11;107653;1268;59724;-72
2022/10/24 10:32:50;;;;;;;;;;;;;;;23.64;38.82;97887.55;107711;1269;59701;-72
2022/10/24 10:35:25;;;;;;;;;;;;;;;24.12;38.71;97880.94;107629;1262;70618;-73
2022/10/24 10:38:05;;;;;;;;;;;;;;;24.28;37.32;97877.42;107821;1268;69179;-73
2022/10/24 10:40:38;;;;;;;;;;;;;;;24.42;37.46;97877.09;107677;1264;69385;-73
2022/10/24 10:43:16;;;;;;;;;;;;;;;24.67;35.80;97874.33;107625;1268;59765;-74
2022/10/24 10:46:10;;;;;;;;;;;;;;;25.77;36.54;97870.71;107641;1268;59665;-73
2022/10/24 10:48:47;;;;;;;;;;;;;;;26.60;35.74;97871.11;107549;1269;70405;-73
2022/10/24 10:51:15;;;;;;;;;;;;;;;27.22;35.17;97866.21;107677;1270;69267;-73
2022/10/24 10:54:07;;;;;;;;;;;;;;;27.03;32.38;97863.66;107634;1265;69456;-73
2022/10/24 10:56:41;;;;;;;;;;;;;;;27.15;33.42;97855.79;107641;1266;59726;-73
2022/10/24 10:59:24;;;;;;;;;;;;;;;26.99;32.63;97854.20;107656;1269;59665;-74
2022/10/24 11:02:15;;;;;;;;;;;;;;;27.50;32.37;97853.15;107610;1271;71290;-75
2022/10/24 11:04:43;;;;;;;;;;;;;;;27.51;32.13;97852.60;107666;1269;69855;-73
2022/10/24 11:07:32;;;;;;;;;;;;;;;27.55;31.33;97847.77;107603;1270;68934;-74
2022/10/24 11:10:02;;;;;;;;;;;;;;;27.64;30.58;97846.85;107568;1270;59806;-75
2022/10/24 11:12:33;;;;;;;;;;;;;;;27.36;30.56;97840.05;107645;1265;59774;-74
2022/10/24 11:15:06;;;;;;;;;;;;;;;27.60;31.30;97841.31;107638;1271;71444;-73
2022/10/24 11:17:49;;;;;;;;;;;;;;;27.36;30.40;97838.45;107689;1270;70049;-72
2022/10/24 11:20:20;;;;;;;;;;;;;;;27.25;30.76;97838.34;107620;1270;69643;-73
2022/10/24 11:22:51;;;;;;;;;;;;;;;27.05;30.92;97837.59;107598;1270;59721;-72
2022/10/24 11:25:20;;;;;;;;;;;;;;;27.57;30.43;97837.56;107650;1270;59671;-73
2022/10/24 11:28:02;;;;;;;;;;;;;;;28.08;30.93;97833.64;107620;1270;72439;-73
2022/10/24 11:30:37;;;;;;;;;;;;;;;28.93;29.90;97829.77;107633;1268;69251;-73
2022/10/24 11:33:13;;;;;;;;;;;;;;;28.59;30.17;97826.00;107653;1270;68750;-73
2022/10/24 11:35:52;;;;;;;;;;;;;;;29.92;28.99;97812.29;107692;1264;59721;-74
2022/10/24 11:38:23;;;;;;;;;;;;;;;30.20;28.47;97803.81;107592;1268;59706;-75
2022/10/24 11:40:54;;;;;;;;;;;;;;;30.46;27.27;97808.18;107597;1268;71972;-74
2022/10/24 11:43:32;;;;;;;;;;;;;;;30.30;27.20;97810.25;107622;1269;69879;-74
2022/10/24 11:46:08;;;;;;;;;;;;;;;29.54;27.30;97798.44;107650;1269;70096;-74
2022/10/24 11:48:41;;;;;;;;;;;;;;;29.50;28.05;97795.00;107632;1269;59691;-74
2022/10/24 11:51:19;;;;;;;;;;;;;;;29.34;28.34;97792.77;107703;1269;59673;-73
2022/10/24 11:53:50;;;;;;;;;;;;;;;29.79;27.21;97782.71;107623;1259;70680;-73
2022/10/24 11:56:22;;;;;;;;;;;;;;;30.54;27.50;97779.35;107625;1269;69283;-76
2022/10/24 11:58:58;;;;;;;;;;;;;;;30.85;26.82;97775.68;107724;1270;69269;-73
2022/10/24 12:01:26;;;;;;;;;;;;;;;31.09;26.68;97767.99;107641;1269;59703;-74
2022/10/24 12:03:59;;;;;;;;;;;;;;;30.96;25.93;97763.21;107639;1265;59704;-73
2022/10/24 12:06:28;;;;;;;;;;;;;;;30.84;26.49;97758.89;107696;1268;72161;-73
2022/10/24 12:08:56;;;;;;;;;;;;;;;31.12;26.03;97750.66;107613;1268;69846;-72
2022/10/24 12:11:33;;;;;;;;;;;;;;;31.21;26.04;97745.95;107731;1268;68486;-72
2022/10/24 12:14:02;;;;;;;;;;;;;;;31.32;26.17;97744.42;107705;1259;59805;-73
2022/10/24 12:16:37;;;;;;;;;;;;;;;31.14;25.90;97737.73;107737;1268;59771;-73
2022/10/24 12:19:14;;;;;;;;;;;;;;;30.77;26.18;97731.52;107704;1259;71892;-72
2022/10/24 12:22:03;;;;;;;;;;;;;;;30.80;26.07;97725.01;107612;1264;70339;-72
2022/10/24 12:24:32;;;;;;;;;;;;;;;30.63;26.08;97719.74;107642;1269;69883;-72
2022/10/24 12:27:18;;;;;;;;;;;;;;;30.35;26.01;97717.88;107613;1269;59741;-72
2022/10/24 12:29:59;;;;;;;;;;;;;;;30.08;26.32;97715.27;107646;1268;59777;-72
2022/10/24 12:32:36;;;;;;;;;;;;;;;29.72;26.85;97713.60;107676;1268;71457;-73
2022/10/24 12:35:24;;;;;;;;;;;;;;;29.37;27.39;97714.39;107660;1268;69221;-73
2022/10/24 12:37:58;;;;;;;;;;;;;;;29.06;27.77;97715.77;107581;1271;69677;-72
2022/10/24 12:41:10;;;;;;;;;;;;;;;29.72;27.03;97710.31;107653;1268;59806;-72
2022/10/24 12:43:43;;;;;;;;;;;;;;;29.31;27.47;97710.89;107273;1271;59740;-72
2022/10/24 12:46:14;;;;;;;;;;;;;;;29.81;27.35;97709.69;107589;1271;71445;-71
2022/10/24 12:48:57;;;;;;;;;;;;;;;30.20;26.88;97707.62;107629;1270;69935;-72
2022/10/24 12:51:30;;;;;;;;;;;;;;;29.82;26.54;97704.38;107753;1265;68847;-71
2022/10/24 12:53:59;;;;;;;;;;;;;;;29.73;27.37;97699.58;107621;1270;59834;-73
2022/10/24 12:56:30;;;;;;;;;;;;;;;29.66;27.05;97692.94;107767;1268;59686;-73
2022/10/24 12:58:59;;;;;;;;;;;;;;;29.63;27.08;97686.66;107625;1269;72513;-72
2022/10/24 13:01:33;;;;;;;;;;;;;;;29.83;26.66;97685.42;107628;1271;69929;-72
2022/10/24 13:04:17;;;;;;;;;;;;;;;29.99;27.11;97687.46;107724;1268;69327;-72